»·PEaware :: N664TL KSNA-KSFO

N664TL :: KSNA-KSFO

FLIGHT INFORMATION

Flight Status: Arrived
Operator: Privately registered:
United States
More flights under this callsign
Pilot: Anonymous 328 (328)
Aircraft: Unknown
(G500)
More flights by this aircraft type
Origin: KSNA John Wayne-Orange Co
United States
Destination: KSFO San Francisco Intl
United States
More flights between these airports :: More routes between these airports
Route: +MIKAA1 HHERO RIZIN TYTON SPERR PEEBR SERFR SERFR3
File this flight plan on PilotEdge
Remarks:
Altitude:
(Current/Filed)
43,000ft
Speed:
(Current/Filed)
0kts
Departed: 04-Oct-18 09:16 AM
Arrived: 04-Oct-18 10:37 AM
Distance/Time
Traveled:
323nm/1:20
Distance/Time
To Go:
Arrived

Flight Plot

Page will automatically refresh every two minutes.

Flight plan parsing failed; only flown route is shown


Map Options




Map Legend


Flown Route
Filed Route
Departure Airport
Arrival Airport
Navaid (VOR, NDB)
Fix

Horizontal Profiles

Position Reports

Time Latitude Longitude Heading Altitude Ground
Speed
04-Oct-18 09:04 33.676174 -117.870033 208 54ft 16kts
04-Oct-18 09:05 33.670662 -117.873520 205 59ft 21kts
04-Oct-18 09:06 33.668941 -117.874619 207 60ft 0kts
04-Oct-18 09:07 33.668941 -117.874619 207 60ft 0kts
04-Oct-18 09:08 33.668941 -117.874619 207 60ft 0kts
04-Oct-18 09:09 33.668941 -117.874619 207 60ft 0kts
04-Oct-18 09:10 33.668941 -117.874619 207 60ft 0kts
04-Oct-18 09:11 33.668941 -117.874619 207 60ft 0kts
04-Oct-18 09:12 33.668941 -117.874619 207 60ft 0kts
04-Oct-18 09:13 33.668941 -117.874619 207 60ft 0kts
04-Oct-18 09:14 33.668941 -117.874619 207 60ft 0kts
04-Oct-18 09:15 33.668930 -117.874626 207 60ft 0kts
04-Oct-18 09:16 33.668427 -117.874718 156 60ft 0kts
04-Oct-18 09:17 33.668224 -117.874527 131 60ft 9kts
04-Oct-18 09:18 33.698257 -117.854660 27 1852ft 202kts
04-Oct-18 09:19 33.740501 -117.807434 75 4178ft 242kts
04-Oct-18 09:20 33.746662 -117.745636 128 5537ft 229kts
04-Oct-18 09:21 33.678780 -117.721062 202 9395ft 238kts
04-Oct-18 09:22 33.633175 -117.759605 234 12150ft 272kts
04-Oct-18 09:23 33.579258 -117.845482 233 13013ft 350kts
04-Oct-18 09:24 33.519241 -117.940742 233 12954ft 262kts
04-Oct-18 09:25 33.488632 -117.989052 232 13020ft 189kts
04-Oct-18 09:26 33.460583 -118.041100 248 13044ft 224kts
04-Oct-18 09:27 33.431274 -118.102142 240 12946ft 189kts
04-Oct-18 09:28 33.410084 -118.156120 278 12943ft 216kts
04-Oct-18 09:29 33.428310 -118.241951 282 12930ft 321kts
04-Oct-18 09:30 33.459980 -118.352371 298 12919ft 375kts
04-Oct-18 09:31 33.510872 -118.463913 301 12911ft 383kts
04-Oct-18 09:32 33.582348 -118.558365 315 13003ft 383kts
04-Oct-18 09:33 33.659149 -118.647545 315 13011ft 384kts
04-Oct-18 09:34 33.735928 -118.736839 315 13020ft 384kts
04-Oct-18 09:35 33.812401 -118.826027 315 13016ft 384kts
04-Oct-18 09:36 33.888882 -118.915459 315 13025ft 384kts
04-Oct-18 09:37 33.964973 -119.005875 307 13014ft 384kts
04-Oct-18 09:38 33.994514 -119.128380 282 13021ft 384kts
04-Oct-18 09:39 34.026920 -119.249405 308 13025ft 384kts
04-Oct-18 09:40 34.115082 -119.321121 329 13101ft 386kts
04-Oct-18 09:41 34.203503 -119.384056 329 18099ft 361kts
04-Oct-18 09:42 34.292274 -119.447624 329 21735ft 381kts
04-Oct-18 09:43 34.385975 -119.514755 327 24463ft 400kts
04-Oct-18 09:44 34.472530 -119.609383 310 25976ft 448kts
04-Oct-18 09:45 34.540543 -119.740883 299 25993ft 464kts
04-Oct-18 09:46 34.603287 -119.877769 298 25996ft 465kts
04-Oct-18 09:47 34.665852 -120.015114 298 25995ft 465kts
04-Oct-18 09:48 34.728024 -120.152191 298 25994ft 465kts
04-Oct-18 09:49 34.790302 -120.290024 298 25996ft 465kts
04-Oct-18 09:50 34.852177 -120.427513 298 25995ft 465kts
04-Oct-18 09:51 34.914093 -120.565651 298 25995ft 465kts
04-Oct-18 09:52 34.975845 -120.703995 298 25994ft 465kts
04-Oct-18 09:53 35.041962 -120.839104 308 25993ft 465kts
04-Oct-18 09:54 35.132114 -120.951401 315 25998ft 465kts
04-Oct-18 09:55 35.224316 -121.062294 315 25993ft 465kts
04-Oct-18 09:56 35.329025 -121.152634 340 25994ft 465kts
04-Oct-18 09:57 35.451904 -121.201103 346 25997ft 465kts
04-Oct-18 09:58 35.578522 -121.234650 347 25998ft 465kts
04-Oct-18 09:59 35.705292 -121.268150 347 25996ft 465kts
04-Oct-18 10:00 35.831596 -121.301598 347 25992ft 465kts
04-Oct-18 10:01 35.958286 -121.335281 347 25994ft 465kts
04-Oct-18 10:02 36.082253 -121.378426 333 25996ft 465kts
04-Oct-18 10:03 36.192768 -121.461761 327 25996ft 465kts
04-Oct-18 10:04 36.301937 -121.547089 327 25984ft 465kts
04-Oct-18 10:05 36.407028 -121.629608 327 24488ft 419kts
04-Oct-18 10:06 36.501324 -121.703888 327 23050ft 391kts
04-Oct-18 10:07 36.591908 -121.775505 327 20979ft 379kts
04-Oct-18 10:08 36.679409 -121.844864 327 19004ft 368kts
04-Oct-18 10:09 36.768974 -121.901657 345 17099ft 357kts
04-Oct-18 10:10 36.864906 -121.928581 347 15218ft 348kts
04-Oct-18 10:11 36.957714 -121.955795 344 13395ft 338kts
04-Oct-18 10:12 37.046780 -121.990067 342 11615ft 329kts
04-Oct-18 10:13 37.130684 -122.022804 342 10457ft 297kts
04-Oct-18 10:14 37.207359 -122.052811 342 9459ft 285kts
04-Oct-18 10:15 37.282486 -122.082283 342 7890ft 278kts
04-Oct-18 10:16 37.354771 -122.110779 342 6407ft 264kts
04-Oct-18 10:17 37.424469 -122.135788 344 5152ft 255kts
04-Oct-18 10:18 37.490517 -122.157875 345 4015ft 234kts
04-Oct-18 10:19 37.543465 -122.190613 294 2949ft 209kts
04-Oct-18 10:20 37.569008 -122.250610 298 1910ft 180kts
04-Oct-18 10:21 37.590847 -122.302643 297 1031ft 128kts
04-Oct-18 10:22 37.609188 -122.348915 293 2560ft 219kts
04-Oct-18 10:23 37.638565 -122.427559 295 3036ft 261kts
04-Oct-18 10:24 37.664944 -122.510178 302 3916ft 257kts
04-Oct-18 10:25 37.640293 -122.562538 159 4006ft 212kts
04-Oct-18 10:26 37.605583 -122.504166 113 4009ft 211kts
04-Oct-18 10:27 37.582214 -122.436256 113 4006ft 211kts
04-Oct-18 10:28 37.558735 -122.368118 113 4007ft 211kts
04-Oct-18 10:29 37.535286 -122.300011 113 4005ft 211kts
04-Oct-18 10:30 37.511917 -122.232094 113 4007ft 211kts
04-Oct-18 10:31 37.488819 -122.164848 111 3585ft 202kts
04-Oct-18 10:32 37.519917 -122.140938 318 3007ft 170kts
04-Oct-18 10:33 37.544151 -122.190674 297 2878ft 165kts
04-Oct-18 10:34 37.563110 -122.236107 297 2197ft 145kts
04-Oct-18 10:35 37.579578 -122.275620 297 1474ft 123kts
04-Oct-18 10:36 37.595478 -122.313744 297 825ft 122kts
04-Oct-18 10:37 37.611240 -122.351509 297 180ft 121kts
04-Oct-18 10:38 37.622623 -122.378845 300 16ft 52kts
04-Oct-18 10:39 37.624737 -122.381256 15 15ft 0kts
04-Oct-18 10:40 37.626518 -122.380760 26 15ft 13kts
04-Oct-18 10:41 37.627560 -122.380066 29 15ft 0kts
04-Oct-18 10:42 37.627560 -122.380066 29 15ft 0kts
04-Oct-18 10:43 37.627560 -122.380066 29 15ft 0kts
04-Oct-18 10:44 37.627560 -122.380066 29 15ft 0kts
04-Oct-18 10:45 37.627560 -122.380066 29 15ft 0kts
04-Oct-18 10:46 37.627560 -122.380066 29 15ft 0kts
04-Oct-18 10:47 37.627560 -122.380066 29 15ft 0kts
04-Oct-18 10:48 37.627560 -122.380066 29 15ft 0kts

Navigation Log

Ident Type
Flight plan parsing failed, navigation log unavailable